Time;durP1;ratioP1;P1;durP2;ratioP2;P2;SDS_P1;SDS_P2;PMS_P1;PMS_P2;Temp;Humidity;BMP_temperature;BMP_pressure;BME280_temperature;BME280_humidity;BME280_pressure;Samples;Min_cycle;Max_cycle;Signal;HPM_P1;HPM_P2
2022/10/27 00:00:58;;;;;;;;;;;;;;;8.74;100.00;101118.38;3057178;19;20365;-51
2022/10/27 00:02:00;;;;;;;;;;;;;;;8.75;100.00;101112.13;3056678;19;20290;-51
2022/10/27 00:03:04;;;;;;;;;;;;;;;8.77;100.00;101112.06;3057069;19;19926;-51
2022/10/27 00:04:06;;;;;;;;;;;;;;;8.79;100.00;101112.84;3056800;19;19923;-51
2022/10/27 00:05:11;;;;;;;;;;;;;;;8.80;100.00;101114.59;3056416;19;19925;-51
2022/10/27 00:06:13;;;;;;;;;;;;;;;8.80;100.00;101115.47;3056707;19;19927;-51
2022/10/27 00:07:17;;;;;;;;;;;;;;;8.82;100.00;101108.25;3056976;19;19927;-51
2022/10/27 00:08:20;;;;;;;;;;;;;;;8.82;100.00;101113.56;3056530;19;19922;-51
2022/10/27 00:09:24;;;;;;;;;;;;;;;8.83;100.00;101109.97;3057118;19;20143;-51
2022/10/27 00:10:26;;;;;;;;;;;;;;;8.85;100.00;101113.44;3055769;19;19922;-51
2022/10/27 00:11:30;;;;;;;;;;;;;;;8.86;100.00;101112.50;3055954;19;19915;-51
2022/10/27 00:12:33;;;;;;;;;;;;;;;8.85;100.00;101102.78;3056766;19;19942;-51
2022/10/27 00:13:37;;;;;;;;;;;;;;;8.87;100.00;101116.91;3056925;19;19923;-51
2022/10/27 00:14:40;;;;;;;;;;;;;;;8.87;100.00;101116.03;3056865;19;19926;-51
2022/10/27 00:15:44;;;;;;;;;;;;;;;8.87;100.00;101122.22;3056760;19;19919;-52
2022/10/27 00:16:51;;;;;;;;;;;;;;;8.88;100.00;101120.44;3056998;19;19933;-51
2022/10/27 00:17:55;;;;;;;;;;;;;;;8.88;100.00;101121.28;3056890;19;20320;-52
2022/10/27 00:18:57;;;;;;;;;;;;;;;8.86;100.00;101115.16;3057168;19;19919;-51
2022/10/27 00:20:01;;;;;;;;;;;;;;;8.86;100.00;101117.81;3056505;19;19961;-51
2022/10/27 00:21:08;;;;;;;;;;;;;;;8.85;100.00;101124.09;3055972;19;20010;-51
2022/10/27 00:22:12;;;;;;;;;;;;;;;8.84;100.00;101124.16;3055669;19;19926;-52
2022/10/27 00:23:14;;;;;;;;;;;;;;;8.82;100.00;101126.88;3057005;19;19919;-51
2022/10/27 00:24:22;;;;;;;;;;;;;;;8.81;100.00;101122.50;3056336;19;19933;-51
2022/10/27 00:25:23;;;;;;;;;;;;;;;8.79;100.00;101124.38;3056497;19;20428;-51
2022/10/27 00:26:28;;;;;;;;;;;;;;;8.77;100.00;101131.56;3056486;19;19922;-51
2022/10/27 00:27:30;;;;;;;;;;;;;;;8.74;100.00;101121.03;3056476;19;19919;-51
2022/10/27 00:28:34;;;;;;;;;;;;;;;8.74;100.00;101128.16;3056164;19;19978;-52
2022/10/27 00:29:36;;;;;;;;;;;;;;;8.72;100.00;101128.22;3056914;19;19918;-51
2022/10/27 00:30:40;;;;;;;;;;;;;;;8.70;100.00;101134.53;3056340;19;19922;-51
2022/10/27 00:31:42;;;;;;;;;;;;;;;8.68;100.00;101131.97;3055453;19;19950;-51
2022/10/27 00:32:46;;;;;;;;;;;;;;;8.67;100.00;101138.22;3056109;19;19923;-51
2022/10/27 00:33:49;;;;;;;;;;;;;;;8.65;100.00;101129.41;3056418;19;20218;-51
2022/10/27 00:34:53;;;;;;;;;;;;;;;8.63;100.00;101128.63;3056157;19;20361;-52
2022/10/27 00:35:56;;;;;;;;;;;;;;;8.62;100.00;101135.75;3056443;19;19936;-51
2022/10/27 00:37:00;;;;;;;;;;;;;;;8.63;100.00;101133.94;3055801;19;19945;-51
2022/10/27 00:38:02;;;;;;;;;;;;;;;8.63;100.00;101129.50;3056318;19;20261;-51
2022/10/27 00:39:06;;;;;;;;;;;;;;;8.64;100.00;101130.34;3055895;19;19933;-51
2022/10/27 00:40:08;;;;;;;;;;;;;;;8.66;100.00;101133.81;3056465;19;19926;-51
2022/10/27 00:41:22;;;;;;;;;;;;;;;8.64;100.00;101131.22;3056191;19;19994;-51
2022/10/27 00:42:26;;;;;;;;;;;;;;;8.64;100.00;101135.69;3056158;19;19982;-51
2022/10/27 00:43:35;;;;;;;;;;;;;;;8.65;100.00;101126.75;3056151;19;19923;-51
2022/10/27 00:44:41;;;;;;;;;;;;;;;8.65;100.00;101127.63;3056609;19;19926;-51
2022/10/27 00:45:43;;;;;;;;;;;;;;;8.66;100.00;101137.34;3056099;19;19919;-51
2022/10/27 00:46:47;;;;;;;;;;;;;;;8.68;100.00;101137.28;3056427;19;19915;-51
2022/10/27 00:47:49;;;;;;;;;;;;;;;8.68;100.00;101136.41;3055811;19;19919;-51
2022/10/27 00:48:55;;;;;;;;;;;;;;;8.69;100.00;101136.34;3056470;19;19953;-51
2022/10/27 00:50:00;;;;;;;;;;;;;;;8.70;100.00;101135.41;3055665;19;19919;-51
2022/10/27 00:51:04;;;;;;;;;;;;;;;8.71;100.00;101134.47;3056282;19;19923;-51
2022/10/27 00:52:07;;;;;;;;;;;;;;;8.73;100.00;101137.94;3056806;19;20313;-51
2022/10/27 00:53:11;;;;;;;;;;;;;;;8.73;100.00;101140.59;3054745;19;19944;-51
2022/10/27 00:54:13;;;;;;;;;;;;;;;8.74;100.00;101141.47;3055209;19;19935;-51
2022/10/27 00:55:19;;;;;;;;;;;;;;;8.74;100.00;101147.66;3054980;19;19915;-52
2022/10/27 00:56:21;;;;;;;;;;;;;;;8.74;100.00;101136.13;3052699;19;19927;-51
2022/10/27 00:57:25;;;;;;;;;;;;;;;8.75;100.00;101144.06;3055258;19;20338;-52
2022/10/27 00:58:27;;;;;;;;;;;;;;;8.74;100.00;101142.31;3054950;19;20404;-51
2022/10/27 00:59:31;;;;;;;;;;;;;;;8.74;100.00;101139.66;3055317;19;19943;-52
2022/10/27 01:00:34;;;;;;;;;;;;;;;8.74;100.00;101131.69;3054950;19;20394;-51
2022/10/27 01:01:39;;;;;;;;;;;;;;;8.75;100.00;101141.41;3056379;19;19929;-52
2022/10/27 01:02:41;;;;;;;;;;;;;;;8.75;100.00;101138.72;3055081;19;19918;-51
2022/10/27 01:03:45;;;;;;;;;;;;;;;8.74;100.00;101137.00;3055554;19;19954;-52
2022/10/27 01:04:49;;;;;;;;;;;;;;;8.74;100.00;101137.00;3054893;19;20349;-52
2022/10/27 01:05:53;;;;;;;;;;;;;;;8.74;100.00;101138.78;3055001;19;19915;-52
2022/10/27 01:06:55;;;;;;;;;;;;;;;8.71;100.00;101131.81;3054578;19;19922;-51
2022/10/27 01:08:00;;;;;;;;;;;;;;;8.70;100.00;101138.06;3054566;19;19923;-52
2022/10/27 01:09:02;;;;;;;;;;;;;;;8.68;100.00;101139.94;3055121;19;20519;-51
2022/10/27 01:10:07;;;;;;;;;;;;;;;8.66;100.00;101134.69;3054818;19;20337;-52
2022/10/27 01:11:09;;;;;;;;;;;;;;;8.65;100.00;101135.63;3054941;19;20349;-51
2022/10/27 01:12:13;;;;;;;;;;;;;;;8.62;100.00;101129.53;3054938;19;19919;-51
2022/10/27 01:13:15;;;;;;;;;;;;;;;8.61;100.00;101135.78;3055826;19;19943;-51
2022/10/27 01:14:19;;;;;;;;;;;;;;;8.60;100.00;101128.75;3054684;19;20337;-51
2022/10/27 01:15:22;;;;;;;;;;;;;;;8.59;100.00;101132.34;3055081;19;19923;-51
2022/10/27 01:16:35;;;;;;;;;;;;;;;8.55;100.00;101130.75;3055651;19;19918;-51
2022/10/27 01:17:39;;;;;;;;;;;;;;;8.54;100.00;101126.38;3054878;19;20345;-51
2022/10/27 01:18:50;;;;;;;;;;;;;;;8.53;100.00;101124.63;3054808;19;19919;-51
2022/10/27 01:20:05;;;;;;;;;;;;;;;8.51;100.00;101123.81;3054812;19;19919;-51
2022/10/27 01:21:28;;;;;;;;;;;;;;;8.49;100.00;101128.34;3054702;19;19938;-51
2022/10/27 01:22:48;;;;;;;;;;;;;;;8.45;100.00;101127.59;3054665;19;20201;-51
2022/10/27 01:24:11;;;;;;;;;;;;;;;8.43;100.00;101123.31;3055807;19;20227;-51
2022/10/27 01:25:32;;;;;;;;;;;;;;;8.41;100.00;101122.50;3055417;19;19926;-51
2022/10/27 01:26:39;;;;;;;;;;;;;;;8.39;100.00;101121.69;3055587;19;20479;-52
2022/10/27 01:28:02;;;;;;;;;;;;;;;8.36;100.00;101128.00;3054875;19;19923;-51
2022/10/27 01:29:12;;;;;;;;;;;;;;;8.35;100.00;101122.75;3054913;19;19923;-51
2022/10/27 01:30:17;;;;;;;;;;;;;;;8.32;100.00;101125.56;3055024;19;19939;-51
2022/10/27 01:31:37;;;;;;;;;;;;;;;8.29;100.00;101124.72;3054522;19;19919;-52
2022/10/27 01:32:49;;;;;;;;;;;;;;;8.28;100.00;101122.97;3054153;19;19930;-53
2022/10/27 01:33:59;;;;;;;;;;;;;;;8.28;100.00;101120.31;3055620;19;20364;-52
2022/10/27 01:35:20;;;;;;;;;;;;;;;8.28;100.00;101128.28;3054188;19;19926;-52
2022/10/27 01:36:32;;;;;;;;;;;;;;;8.26;100.00;101123.97;3054562;19;20011;-51
2022/10/27 01:37:55;;;;;;;;;;;;;;;8.25;100.00;101136.41;3054391;19;19926;-51
2022/10/27 01:39:00;;;;;;;;;;;;;;;8.23;100.00;101124.94;3055201;19;19918;-51
2022/10/27 01:40:10;;;;;;;;;;;;;;;8.21;100.00;101121.50;3055682;19;20030;-51
2022/10/27 01:41:16;;;;;;;;;;;;;;;8.19;100.00;101128.69;3054705;19;20054;-52
2022/10/27 01:42:39;;;;;;;;;;;;;;;8.17;100.00;101130.53;3054942;19;19930;-51
2022/10/27 01:43:41;;;;;;;;;;;;;;;8.13;100.00;101128.94;3054637;19;19927;-51
2022/10/27 01:44:46;;;;;;;;;;;;;;;8.12;100.00;101132.50;3054585;19;19933;-51
2022/10/27 01:45:48;;;;;;;;;;;;;;;8.09;100.00;101134.44;3054429;19;19919;-51
2022/10/27 01:46:52;;;;;;;;;;;;;;;8.06;100.00;101132.78;3054521;19;19911;-51
2022/10/27 01:47:54;;;;;;;;;;;;;;;8.04;100.00;101134.63;3055914;19;20358;-52
2022/10/27 01:48:58;;;;;;;;;;;;;;;8.01;100.00;101126.78;3054662;19;19994;-51
2022/10/27 01:50:00;;;;;;;;;;;;;;;7.98;100.00;101126.88;3054026;19;20356;-51
2022/10/27 01:51:06;;;;;;;;;;;;;;;7.97;100.00;101127.81;3055023;19;20046;-51
2022/10/27 01:52:27;;;;;;;;;;;;;;;7.94;100.00;101131.50;3054855;19;19946;-51
2022/10/27 01:53:32;;;;;;;;;;;;;;;7.91;100.00;101133.41;3055276;19;19926;-51
2022/10/27 01:54:34;;;;;;;;;;;;;;;7.88;100.00;101138.81;3054288;19;19975;-51
2022/10/27 01:55:48;;;;;;;;;;;;;;;7.86;100.00;101135.34;3054492;19;19929;-52
2022/10/27 01:56:53;;;;;;;;;;;;;;;7.83;100.00;101135.50;3054887;19;19930;-51
2022/10/27 01:57:57;;;;;;;;;;;;;;;7.81;100.00;101130.25;3055324;19;19922;-53
2022/10/27 01:59:22;;;;;;;;;;;;;;;7.80;100.00;101135.63;3055432;19;19918;-51
2022/10/27 02:00:27;;;;;;;;;;;;;;;7.77;100.00;101143.69;3052651;19;20402;-51
2022/10/27 02:01:34;;;;;;;;;;;;;;;7.76;100.00;101139.31;3054687;19;19984;-51
2022/10/27 02:02:39;;;;;;;;;;;;;;;7.74;100.00;101127.88;3054129;19;19979;-51
2022/10/27 02:03:43;;;;;;;;;;;;;;;7.73;100.00;101144.78;3054451;19;20352;-51
2022/10/27 02:05:17;;;;;;;;;;;;;;;7.70;100.00;101139.56;3054994;19;20237;-51
2022/10/27 02:06:20;;;;;;;;;;;;;;;7.67;100.00;101145.84;3054220;19;19926;-51
2022/10/27 02:07:32;;;;;;;;;;;;;;;7.65;100.00;101145.06;3054134;19;20333;-51
2022/10/27 02:08:38;;;;;;;;;;;;;;;7.65;100.00;101142.38;3057563;19;19927;-51
2022/10/27 02:09:44;;;;;;;;;;;;;;;7.64;100.00;101139.78;3057590;19;19923;-51
2022/10/27 02:10:50;;;;;;;;;;;;;;;7.64;100.00;101139.78;3056449;19;19923;-51
2022/10/27 02:11:55;;;;;;;;;;;;;;;7.64;100.00;101139.78;3058594;19;19915;-51
2022/10/27 02:12:56;;;;;;;;;;;;;;;7.64;100.00;101145.09;3056630;19;20341;-51
2022/10/27 02:14:01;;;;;;;;;;;;;;;7.66;100.00;101140.59;3057293;19;19918;-53
2022/10/27 02:15:04;;;;;;;;;;;;;;;7.65;100.00;101141.53;3058638;19;19926;-52
2022/10/27 02:16:09;;;;;;;;;;;;;;;7.64;100.00;101143.31;3057577;19;19915;-51
2022/10/27 02:17:11;;;;;;;;;;;;;;;7.65;100.00;101146.84;3056917;19;19915;-51
2022/10/27 02:18:20;;;;;;;;;;;;;;;7.66;100.00;101151.22;3057657;19;20286;-51
2022/10/27 02:19:23;;;;;;;;;;;;;;;7.66;100.00;101145.91;3057319;19;19923;-51
2022/10/27 02:20:27;;;;;;;;;;;;;;;7.65;100.00;101150.38;3057052;19;19926;-51
2022/10/27 02:21:29;;;;;;;;;;;;;;;7.66;100.00;101148.56;3057128;19;19915;-51
2022/10/27 02:22:34;;;;;;;;;;;;;;;7.67;100.00;101147.66;3057075;19;20276;-51
2022/10/27 02:23:35;;;;;;;;;;;;;;;7.69;100.00;101149.31;3056977;19;19927;-52
2022/10/27 02:24:40;;;;;;;;;;;;;;;7.70;100.00;101144.88;3058203;19;19919;-51
2022/10/27 02:25:47;;;;;;;;;;;;;;;7.72;100.00;101153.66;3057834;19;19927;-51
2022/10/27 02:26:53;;;;;;;;;;;;;;;7.72;100.00;101148.34;3058076;19;19946;-51
2022/10/27 02:27:56;;;;;;;;;;;;;;;7.73;100.00;101152.75;3056945;19;19915;-51
2022/10/27 02:29:04;;;;;;;;;;;;;;;7.74;100.00;101151.78;3057524;19;19930;-51
2022/10/27 02:30:06;;;;;;;;;;;;;;;7.74;100.00;101151.78;3056913;19;20322;-52
2022/10/27 02:31:11;;;;;;;;;;;;;;;7.74;100.00;101157.97;3058414;19;19983;-52
2022/10/27 02:32:17;;;;;;;;;;;;;;;7.74;100.00;101154.44;3057131;19;19940;-51
2022/10/27 02:33:22;;;;;;;;;;;;;;;7.75;100.00;101154.38;3056087;19;20233;-52
2022/10/27 02:34:24;;;;;;;;;;;;;;;7.75;100.00;101157.03;3056900;19;19919;-51
2022/10/27 02:35:28;;;;;;;;;;;;;;;7.74;100.00;101157.97;3057153;19;19926;-52
2022/10/27 02:36:30;;;;;;;;;;;;;;;7.74;100.00;101159.75;3057277;19;19937;-51
2022/10/27 02:37:40;;;;;;;;;;;;;;;7.74;100.00;101162.41;3056406;19;19926;-52
2022/10/27 02:38:42;;;;;;;;;;;;;;;7.72;100.00;101164.28;3057430;19;19926;-51
2022/10/27 02:39:46;;;;;;;;;;;;;;;7.72;100.00;101164.28;3058004;19;19919;-52
2022/10/27 02:40:48;;;;;;;;;;;;;;;7.71;100.00;101165.22;3058000;19;19950;-51
2022/10/27 02:41:52;;;;;;;;;;;;;;;7.69;100.00;101161.75;3057125;19;19914;-51
2022/10/27 02:42:54;;;;;;;;;;;;;;;7.67;100.00;101167.13;3057234;19;20250;-52
2022/10/27 02:43:58;;;;;;;;;;;;;;;7.64;100.00;101159.25;3057530;19;19926;-51
2022/10/27 02:45:00;;;;;;;;;;;;;;;7.63;100.00;101169.94;3058154;19;19922;-51
2022/10/27 02:46:04;;;;;;;;;;;;;;;7.61;100.00;101166.50;3057407;19;19923;-51
2022/10/27 02:47:06;;;;;;;;;;;;;;;7.57;100.00;101171.91;3057749;19;19926;-51
2022/10/27 02:48:13;;;;;;;;;;;;;;;7.53;100.00;101170.28;3057472;19;19923;-52
2022/10/27 02:49:14;;;;;;;;;;;;;;;7.49;100.00;101173.97;3057481;19;20003;-54
2022/10/27 02:50:19;;;;;;;;;;;;;;;7.49;100.00;101179.28;3058913;19;19926;-51
2022/10/27 02:51:21;;;;;;;;;;;;;;;7.46;100.00;101179.44;3058754;19;19915;-51
2022/10/27 02:52:25;;;;;;;;;;;;;;;7.43;100.00;101184.84;3057328;19;20310;-51
2022/10/27 02:53:27;;;;;;;;;;;;;;;7.40;100.00;101177.00;3057641;19;19915;-51
2022/10/27 02:54:31;;;;;;;;;;;;;;;7.39;100.00;101180.56;3057315;19;19918;-51
2022/10/27 02:55:33;;;;;;;;;;;;;;;7.38;100.00;101184.13;3057650;19;19923;-51
2022/10/27 02:56:38;;;;;;;;;;;;;;;7.34;100.00;101185.19;3057558;19;20400;-51
2022/10/27 02:57:39;;;;;;;;;;;;;;;7.32;100.00;101176.41;3057604;19;20265;-51
2022/10/27 02:58:44;;;;;;;;;;;;;;;7.30;100.00;101183.56;3057547;19;19941;-52
2022/10/27 02:59:45;;;;;;;;;;;;;;;7.30;100.00;101178.25;3057638;19;19918;-51
2022/10/27 03:00:56;;;;;;;;;;;;;;;7.26;100.00;101179.28;3057666;19;19966;-51
2022/10/27 03:01:58;;;;;;;;;;;;;;;7.26;100.00;101194.34;3057334;19;19930;-51
2022/10/27 03:03:03;;;;;;;;;;;;;;;7.24;100.00;101183.81;3057541;19;19914;-51
2022/10/27 03:04:04;;;;;;;;;;;;;;;7.21;100.00;101194.53;3057433;19;19944;-51
2022/10/27 03:05:09;;;;;;;;;;;;;;;7.20;100.00;101192.81;3057469;19;19925;-51
2022/10/27 03:06:11;;;;;;;;;;;;;;;7.17;100.00;101192.91;3057843;19;19911;-51
2022/10/27 03:07:15;;;;;;;;;;;;;;;7.13;100.00;101192.13;3057296;19;20303;-51
2022/10/27 03:08:17;;;;;;;;;;;;;;;7.11;100.00;101193.13;3057832;19;19926;-51
2022/10/27 03:09:21;;;;;;;;;;;;;;;7.08;100.00;101182.63;3057461;19;19948;-51
2022/10/27 03:10:23;;;;;;;;;;;;;;;7.06;100.00;101189.78;3057627;19;20384;-51
2022/10/27 03:11:27;;;;;;;;;;;;;;;7.04;100.00;101189.81;3057554;19;19919;-52
2022/10/27 03:12:29;;;;;;;;;;;;;;;7.02;100.00;101193.44;3057546;19;20344;-52
2022/10/27 03:13:34;;;;;;;;;;;;;;;7.00;100.00;101187.34;3056587;19;19940;-51
2022/10/27 03:14:35;;;;;;;;;;;;;;;6.97;100.00;101187.47;3057522;19;19919;-51
2022/10/27 03:15:40;;;;;;;;;;;;;;;6.95;100.00;101189.28;3057466;19;19978;-52
2022/10/27 03:16:41;;;;;;;;;;;;;;;6.92;100.00;101192.03;3057475;19;19923;-51
2022/10/27 03:17:47;;;;;;;;;;;;;;;6.91;100.00;101188.53;3057234;19;19922;-51
2022/10/27 03:18:48;;;;;;;;;;;;;;;6.88;100.00;101192.16;3056723;19;20006;-51
2022/10/27 03:19:53;;;;;;;;;;;;;;;6.88;100.00;101184.19;3056122;19;20006;-51
2022/10/27 03:20:55;;;;;;;;;;;;;;;6.88;100.00;101195.75;3057783;19;19922;-51
2022/10/27 03:21:59;;;;;;;;;;;;;;;6.86;100.00;101194.00;3057454;19;19990;-52
2022/10/27 03:23:01;;;;;;;;;;;;;;;6.84;100.00;101190.53;3057574;19;20094;-51
2022/10/27 03:24:05;;;;;;;;;;;;;;;6.83;100.00;101194.09;3057724;19;20352;-51
2022/10/27 03:25:08;;;;;;;;;;;;;;;6.82;100.00;101189.72;3057591;19;19930;-51
2022/10/27 03:26:13;;;;;;;;;;;;;;;6.80;100.00;101188.91;3057122;19;19935;-51
2022/10/27 03:27:15;;;;;;;;;;;;;;;6.79;100.00;101192.47;3057658;19;19929;-51
2022/10/27 03:28:19;;;;;;;;;;;;;;;6.80;100.00;101182.72;3056934;19;20273;-51
2022/10/27 03:29:22;;;;;;;;;;;;;;;6.80;100.00;101183.59;3056037;19;19918;-51
2022/10/27 03:30:26;;;;;;;;;;;;;;;6.78;100.00;101190.75;3057373;19;19918;-51
2022/10/27 03:31:28;;;;;;;;;;;;;;;6.78;100.00;101182.78;3057481;19;20027;-51
2022/10/27 03:32:32;;;;;;;;;;;;;;;6.78;100.00;101185.44;3056786;19;19926;-51
2022/10/27 03:33:34;;;;;;;;;;;;;;;6.79;100.00;101187.16;3057062;19;19915;-52
2022/10/27 03:34:39;;;;;;;;;;;;;;;6.79;100.00;101181.00;3057175;19;19934;-51
2022/10/27 03:35:40;;;;;;;;;;;;;;;6.79;100.00;101186.28;3057442;19;19915;-51
2022/10/27 03:36:45;;;;;;;;;;;;;;;6.78;100.00;101180.13;3057045;19;19926;-51
2022/10/27 03:37:53;;;;;;;;;;;;;;;6.80;100.00;101174.78;3057042;19;19918;-52
2022/10/27 03:38:58;;;;;;;;;;;;;;;6.82;100.00;101180.91;3057113;19;19926;-51
2022/10/27 03:39:59;;;;;;;;;;;;;;;6.82;100.00;101180.91;3056982;19;19933;-52
2022/10/27 03:41:04;;;;;;;;;;;;;;;6.82;100.00;101179.09;3056954;19;20274;-51
2022/10/27 03:42:06;;;;;;;;;;;;;;;6.83;100.00;101180.84;3056637;19;19923;-52
2022/10/27 03:43:11;;;;;;;;;;;;;;;6.82;100.00;101176.47;3056902;19;20446;-52
2022/10/27 03:44:12;;;;;;;;;;;;;;;6.84;100.00;101182.59;3057141;19;20353;-52
2022/10/27 03:45:17;;;;;;;;;;;;;;;6.85;100.00;101171.06;3057351;19;20310;-52
2022/10/27 03:46:19;;;;;;;;;;;;;;;6.85;100.00;101192.28;3057142;19;19926;-52
2022/10/27 03:47:23;;;;;;;;;;;;;;;6.85;100.00;101186.97;3057092;19;19942;-51
2022/10/27 03:48:25;;;;;;;;;;;;;;;6.85;100.00;101179.00;3057058;19;20642;-52
2022/10/27 03:49:29;;;;;;;;;;;;;;;6.88;100.00;101190.44;3055494;19;20037;-52
2022/10/27 03:50:31;;;;;;;;;;;;;;;6.87;100.00;101184.25;3058510;19;19915;-52
2022/10/27 03:51:35;;;;;;;;;;;;;;;6.86;100.00;101186.06;3057392;19;19919;-52
2022/10/27 03:52:37;;;;;;;;;;;;;;;6.86;100.00;101183.41;3056855;19;20269;-51
2022/10/27 03:53:41;;;;;;;;;;;;;;;6.85;100.00;101180.78;3056326;19;19930;-51
2022/10/27 03:54:43;;;;;;;;;;;;;;;6.86;100.00;101188.72;3057386;19;19927;-51
2022/10/27 03:55:49;;;;;;;;;;;;;;;6.86;100.00;101194.00;3058810;19;20253;-51
2022/10/27 03:56:50;;;;;;;;;;;;;;;6.85;100.00;101186.09;3057263;19;20349;-52
2022/10/27 03:57:55;;;;;;;;;;;;;;;6.84;100.00;101184.38;3057411;19;20337;-53
2022/10/27 03:58:56;;;;;;;;;;;;;;;6.83;100.00;101191.44;3057850;19;20010;-52
2022/10/27 04:00:01;;;;;;;;;;;;;;;6.83;100.00;101186.16;3057710;19;19930;-52
2022/10/27 04:01:12;;;;;;;;;;;;;;;6.84;100.00;101190.53;3058471;19;19948;-52
2022/10/27 04:02:16;;;;;;;;;;;;;;;6.84;100.00;101190.53;3055858;19;19942;-51
2022/10/27 04:03:18;;;;;;;;;;;;;;;6.86;100.00;101195.78;3056632;19;19939;-51
2022/10/27 04:04:22;;;;;;;;;;;;;;;6.86;100.00;101187.84;3056733;19;19923;-51
2022/10/27 04:05:24;;;;;;;;;;;;;;;6.86;100.00;101187.84;3056591;19;20352;-51
2022/10/27 04:06:29;;;;;;;;;;;;;;;6.86;100.00;101188.72;3056586;19;20234;-51
2022/10/27 04:07:30;;;;;;;;;;;;;;;6.86;100.00;101183.41;3056541;19;19986;-52
2022/10/27 04:08:35;;;;;;;;;;;;;;;6.88;100.00;101195.75;3056030;19;19986;-51
2022/10/27 04:09:36;;;;;;;;;;;;;;;6.89;100.00;101187.72;3055607;19;19943;-51
2022/10/27 04:10:41;;;;;;;;;;;;;;;6.88;100.00;101194.78;3056965;19;19918;-51
2022/10/27 04:11:43;;;;;;;;;;;;;;;6.90;100.00;101189.44;3056464;19;20310;-51
2022/10/27 04:12:51;;;;;;;;;;;;;;;6.90;100.00;101185.91;3056447;19;20352;-51
2022/10/27 04:13:53;;;;;;;;;;;;;;;6.90;100.00;101183.25;3056332;19;19915;-51
2022/10/27 04:14:58;;;;;;;;;;;;;;;6.91;100.00;101190.31;3054921;19;19923;-52
2022/10/27 04:16:00;;;;;;;;;;;;;;;6.91;100.00;101185.00;3057435;19;19941;-51
2022/10/27 04:17:04;;;;;;;;;;;;;;;6.92;100.00;101184.09;3056615;19;19929;-51
2022/10/27 04:18:06;;;;;;;;;;;;;;;6.92;100.00;101181.44;3056562;19;19919;-51
2022/10/27 04:19:11;;;;;;;;;;;;;;;6.91;100.00;101175.25;3056697;19;20010;-51
2022/10/27 04:20:13;;;;;;;;;;;;;;;6.92;100.00;101181.44;3056385;19;19987;-51
2022/10/27 04:21:18;;;;;;;;;;;;;;;6.94;100.00;101175.16;3055658;19;19915;-52
2022/10/27 04:22:20;;;;;;;;;;;;;;;6.96;100.00;101177.75;3055549;19;19954;-51
2022/10/27 04:23:24;;;;;;;;;;;;;;;6.98;100.00;101178.56;3057317;19;19919;-51
2022/10/27 04:24:26;;;;;;;;;;;;;;;6.99;100.00;101177.66;3056556;19;19922;-51
2022/10/27 04:25:30;;;;;;;;;;;;;;;7.02;100.00;101177.53;3056529;19;19919;-51
2022/10/27 04:26:32;;;;;;;;;;;;;;;7.01;100.00;101181.97;3056401;19;19930;-51
2022/10/27 04:27:36;;;;;;;;;;;;;;;7.04;100.00;101181.00;3056508;19;19925;-51
2022/10/27 04:28:41;;;;;;;;;;;;;;;7.06;100.00;101179.16;3056517;19;19923;-52
2022/10/27 04:29:42;;;;;;;;;;;;;;;7.05;100.00;101177.41;3056522;19;20317;-51
2022/10/27 04:30:47;;;;;;;;;;;;;;;7.07;100.00;101180.88;3056579;19;19922;-51
2022/10/27 04:31:48;;;;;;;;;;;;;;;7.07;100.00;101186.19;3056614;19;19923;-51
2022/10/27 04:32:56;;;;;;;;;;;;;;;7.07;100.00;101180.88;3056242;19;19923;-51
2022/10/27 04:33:58;;;;;;;;;;;;;;;7.07;100.00;101186.19;3056558;19;19918;-51
2022/10/27 04:35:02;;;;;;;;;;;;;;;7.06;100.00;101187.13;3055881;19;19919;-51
2022/10/27 04:36:05;;;;;;;;;;;;;;;7.07;100.00;101187.06;3056732;19;19930;-51
2022/10/27 04:37:09;;;;;;;;;;;;;;;7.07;100.00;101197.69;3056303;19;19918;-51
2022/10/27 04:38:11;;;;;;;;;;;;;;;7.06;100.00;101195.06;3056592;19;19923;-53
2022/10/27 04:39:15;;;;;;;;;;;;;;;7.04;100.00;101192.47;3056237;19;19990;-52
2022/10/27 04:40:17;;;;;;;;;;;;;;;7.03;100.00;101189.88;3056339;19;19941;-52
2022/10/27 04:41:22;;;;;;;;;;;;;;;7.01;100.00;101192.56;3056278;19;19957;-51
2022/10/27 04:42:24;;;;;;;;;;;;;;;7.01;100.00;101191.72;3056101;19;19915;-51
2022/10/27 04:43:28;;;;;;;;;;;;;;;6.99;100.00;101197.09;3056636;19;19918;-51
2022/10/27 04:44:30;;;;;;;;;;;;;;;6.97;100.00;101193.63;3056275;19;19919;-52
2022/10/27 04:45:37;;;;;;;;;;;;;;;6.96;100.00;101196.34;3056269;19;19971;-51
2022/10/27 04:46:39;;;;;;;;;;;;;;;6.94;100.00;101199.03;3056246;19;20272;-53
2022/10/27 04:47:44;;;;;;;;;;;;;;;6.92;100.00;101202.66;3055969;19;20269;-51
2022/10/27 04:48:46;;;;;;;;;;;;;;;6.91;100.00;101203.56;3056482;19;19938;-52
2022/10/27 04:49:50;;;;;;;;;;;;;;;6.88;100.00;101207.22;3056323;19;20249;-51
2022/10/27 04:50:52;;;;;;;;;;;;;;;6.84;100.00;101201.16;3056171;19;20310;-52
2022/10/27 04:51:56;;;;;;;;;;;;;;;6.82;100.00;101208.28;3056375;19;19929;-51
2022/10/27 04:53:01;;;;;;;;;;;;;;;6.80;100.00;101209.25;3055979;19;20400;-55
2022/10/27 04:54:06;;;;;;;;;;;;;;;6.78;100.00;101205.78;3056417;19;20338;-51
2022/10/27 04:55:08;;;;;;;;;;;;;;;6.76;100.00;101208.50;3054795;19;19926;-52
2022/10/27 04:56:12;;;;;;;;;;;;;;;6.74;100.00;101210.34;3055365;19;19919;-51
2022/10/27 04:57:14;;;;;;;;;;;;;;;6.73;100.00;101208.63;3054866;19;20305;-52
2022/10/27 04:58:18;;;;;;;;;;;;;;;6.73;100.00;101207.75;3055337;19;20364;-51
2022/10/27 04:59:20;;;;;;;;;;;;;;;6.71;100.00;101205.16;3054962;19;19926;-51
2022/10/27 05:00:25;;;;;;;;;;;;;;;6.71;100.00;101210.44;3055167;19;19931;-52
2022/10/27 05:01:27;;;;;;;;;;;;;;;6.69;100.00;101212.28;3055985;19;19934;-52
2022/10/27 05:02:31;;;;;;;;;;;;;;;6.72;100.00;101228.09;3055848;19;19919;-51
2022/10/27 05:03:39;;;;;;;;;;;;;;;6.72;100.00;101222.78;3056033;19;19940;-52
2022/10/27 05:04:43;;;;;;;;;;;;;;;6.71;100.00;101218.41;3055928;19;19919;-51
2022/10/27 05:05:45;;;;;;;;;;;;;;;6.65;100.00;101209.78;3056707;19;20372;-51
2022/10/27 05:06:49;;;;;;;;;;;;;;;6.70;100.00;101224.63;3056327;19;20011;-51
2022/10/27 05:07:55;;;;;;;;;;;;;;;6.69;100.00;101225.53;3055920;19;19918;-51
2022/10/27 05:08:59;;;;;;;;;;;;;;;6.69;100.00;101227.31;3056100;19;19925;-52
2022/10/27 05:10:01;;;;;;;;;;;;;;;6.66;100.00;101228.28;3055620;19;19919;-52
2022/10/27 05:11:05;;;;;;;;;;;;;;;6.66;100.00;101233.59;3057308;19;19923;-52
2022/10/27 05:12:07;;;;;;;;;;;;;;;6.65;100.00;101233.66;3055965;19;20284;-51
2022/10/27 05:13:11;;;;;;;;;;;;;;;6.65;100.00;101231.00;3056147;19;19941;-51
2022/10/27 05:14:13;;;;;;;;;;;;;;;6.63;100.00;101235.50;3055420;19;20019;-51
2022/10/27 05:15:18;;;;;;;;;;;;;;;6.61;100.00;101235.56;3055452;19;20342;-51
2022/10/27 05:16:20;;;;;;;;;;;;;;;6.60;100.00;101241.78;3053312;19;19919;-51
2022/10/27 05:17:24;;;;;;;;;;;;;;;6.58;100.00;101230.34;3056123;19;19918;-52
2022/10/27 05:18:26;;;;;;;;;;;;;;;6.59;100.00;101245.34;3053480;19;20209;-51
2022/10/27 05:19:30;;;;;;;;;;;;;;;6.57;100.00;101239.22;3054919;19;19918;-52
2022/10/27 05:20:35;;;;;;;;;;;;;;;6.57;100.00;101228.59;3054368;19;19933;-52
2022/10/27 05:21:36;;;;;;;;;;;;;;;6.58;100.00;101237.44;3053747;19;19918;-51
2022/10/27 05:22:41;;;;;;;;;;;;;;;6.58;100.00;101237.44;3055259;19;19923;-51
2022/10/27 05:23:43;;;;;;;;;;;;;;;6.59;100.00;101240.03;3054536;19;20310;-51
2022/10/27 05:24:51;;;;;;;;;;;;;;;6.62;100.00;101241.72;3054232;19;20357;-51
2022/10/27 05:25:53;;;;;;;;;;;;;;;6.63;100.00;101239.03;3053522;19;19954;-51
2022/10/27 05:26:57;;;;;;;;;;;;;;;6.66;100.00;101232.72;3054962;19;19918;-51
2022/10/27 05:28:03;;;;;;;;;;;;;;;6.67;100.00;101237.97;3054190;19;20467;-51
2022/10/27 05:29:07;;;;;;;;;;;;;;;6.71;100.00;101236.97;3053538;19;19985;-51
2022/10/27 05:30:10;;;;;;;;;;;;;;;6.72;100.00;101230.75;3054827;19;20243;-51
2022/10/27 05:31:15;;;;;;;;;;;;;;;6.76;100.00;101236.84;3053907;19;19923;-52
2022/10/27 05:32:16;;;;;;;;;;;;;;;6.77;100.00;101236.75;3054635;19;20002;-51